sensor_id;sensor_type;location;lat;lon;timestamp;temperature;humidity
14771;DHT22;7477;45.222;5.688;2023-04-24T00:00:44;12.10;99.90
14771;DHT22;7477;45.222;5.688;2023-04-24T00:04:04;12.10;99.90
14771;DHT22;7477;45.222;5.688;2023-04-24T00:07:23;12.10;99.90
14771;DHT22;7477;45.222;5.688;2023-04-24T00:10:42;12.00;99.90
14771;DHT22;7477;45.222;5.688;2023-04-24T00:14:02;12.00;99.90
14771;DHT22;7477;45.222;5.688;2023-04-24T00:17:22;12.00;99.90
14771;DHT22;7477;45.222;5.688;2023-04-24T00:20:41;12.00;99.90
14771;DHT22;7477;45.222;5.688;2023-04-24T00:24:00;12.00;99.90
14771;DHT22;7477;45.222;5.688;2023-04-24T00:27:19;11.90;99.90
14771;DHT22;7477;45.222;5.688;2023-04-24T00:30:39;11.80;99.90
14771;DHT22;7477;45.222;5.688;2023-04-24T00:33:59;11.90;99.90
14771;DHT22;7477;45.222;5.688;2023-04-24T00:37:18;11.90;99.90
14771;DHT22;7477;45.222;5.688;2023-04-24T00:40:37;12.00;99.90
14771;DHT22;7477;45.222;5.688;2023-04-24T00:43:56;12.00;99.90
14771;DHT22;7477;45.222;5.688;2023-04-24T00:47:15;12.00;99.90
14771;DHT22;7477;45.222;5.688;2023-04-24T00:50:36;11.90;99.90
14771;DHT22;7477;45.222;5.688;2023-04-24T00:53:55;11.90;99.90
14771;DHT22;7477;45.222;5.688;2023-04-24T00:57:15;11.80;99.90
14771;DHT22;7477;45.222;5.688;2023-04-24T01:00:35;11.90;99.90
14771;DHT22;7477;45.222;5.688;2023-04-24T01:03:55;11.90;99.90
14771;DHT22;7477;45.222;5.688;2023-04-24T01:07:19;11.90;99.90
14771;DHT22;7477;45.222;5.688;2023-04-24T01:10:41;11.90;99.90
14771;DHT22;7477;45.222;5.688;2023-04-24T01:14:00;12.00;99.90
14771;DHT22;7477;45.222;5.688;2023-04-24T01:17:20;11.90;99.90
14771;DHT22;7477;45.222;5.688;2023-04-24T01:20:41;11.90;99.90
14771;DHT22;7477;45.222;5.688;2023-04-24T01:24:01;11.90;99.90
14771;DHT22;7477;45.222;5.688;2023-04-24T01:27:21;11.80;99.90
14771;DHT22;7477;45.222;5.688;2023-04-24T01:30:41;11.80;99.90
14771;DHT22;7477;45.222;5.688;2023-04-24T01:34:01;11.70;99.90
14771;DHT22;7477;45.222;5.688;2023-04-24T01:37:21;11.80;99.90
14771;DHT22;7477;45.222;5.688;2023-04-24T01:40:40;11.90;99.90
14771;DHT22;7477;45.222;5.688;2023-04-24T01:44:00;11.90;99.90
14771;DHT22;7477;45.222;5.688;2023-04-24T01:47:20;11.90;99.90
14771;DHT22;7477;45.222;5.688;2023-04-24T01:50:40;11.80;99.90
14771;DHT22;7477;45.222;5.688;2023-04-24T01:53:59;11.90;99.90
14771;DHT22;7477;45.222;5.688;2023-04-24T01:57:18;11.90;99.90
14771;DHT22;7477;45.222;5.688;2023-04-24T02:00:37;11.90;99.90
14771;DHT22;7477;45.222;5.688;2023-04-24T02:03:56;11.80;99.90
14771;DHT22;7477;45.222;5.688;2023-04-24T02:07:16;11.80;99.90
14771;DHT22;7477;45.222;5.688;2023-04-24T02:10:35;11.80;99.90
14771;DHT22;7477;45.222;5.688;2023-04-24T02:13:55;11.80;99.90
14771;DHT22;7477;45.222;5.688;2023-04-24T02:17:14;11.70;99.90
14771;DHT22;7477;45.222;5.688;2023-04-24T02:20:34;11.80;99.90
14771;DHT22;7477;45.222;5.688;2023-04-24T02:23:54;11.80;99.90
14771;DHT22;7477;45.222;5.688;2023-04-24T02:27:13;11.80;99.90
14771;DHT22;7477;45.222;5.688;2023-04-24T02:30:33;11.80;99.90
14771;DHT22;7477;45.222;5.688;2023-04-24T02:33:53;11.80;99.90
14771;DHT22;7477;45.222;5.688;2023-04-24T02:37:13;11.70;99.90
14771;DHT22;7477;45.222;5.688;2023-04-24T02:40:32;11.70;99.90
14771;DHT22;7477;45.222;5.688;2023-04-24T02:43:51;11.70;99.90
14771;DHT22;7477;45.222;5.688;2023-04-24T02:47:10;11.70;99.90
14771;DHT22;7477;45.222;5.688;2023-04-24T02:50:30;11.80;99.90
14771;DHT22;7477;45.222;5.688;2023-04-24T02:53:49;11.70;99.90
14771;DHT22;7477;45.222;5.688;2023-04-24T02:57:09;11.80;99.90
14771;DHT22;7477;45.222;5.688;2023-04-24T03:00:28;11.80;99.90
14771;DHT22;7477;45.222;5.688;2023-04-24T03:03:47;11.70;99.90
14771;DHT22;7477;45.222;5.688;2023-04-24T03:07:06;11.70;99.90
14771;DHT22;7477;45.222;5.688;2023-04-24T03:10:26;11.70;99.90
14771;DHT22;7477;45.222;5.688;2023-04-24T03:13:45;11.70;99.90
14771;DHT22;7477;45.222;5.688;2023-04-24T03:17:04;11.60;99.90
14771;DHT22;7477;45.222;5.688;2023-04-24T03:20:24;11.60;99.90
14771;DHT22;7477;45.222;5.688;2023-04-24T03:23:43;11.60;99.90
14771;DHT22;7477;45.222;5.688;2023-04-24T03:27:03;11.70;99.90
14771;DHT22;7477;45.222;5.688;2023-04-24T03:30:23;11.70;99.90
14771;DHT22;7477;45.222;5.688;2023-04-24T03:33:42;11.70;99.90
14771;DHT22;7477;45.222;5.688;2023-04-24T03:37:01;11.60;99.90
14771;DHT22;7477;45.222;5.688;2023-04-24T03:40:20;11.50;99.90
14771;DHT22;7477;45.222;5.688;2023-04-24T03:43:40;11.60;99.90
14771;DHT22;7477;45.222;5.688;2023-04-24T03:46:59;11.60;99.90
14771;DHT22;7477;45.222;5.688;2023-04-24T03:50:19;11.60;99.90
14771;DHT22;7477;45.222;5.688;2023-04-24T03:53:39;11.60;99.90
14771;DHT22;7477;45.222;5.688;2023-04-24T03:56:58;11.60;99.90
14771;DHT22;7477;45.222;5.688;2023-04-24T04:00:18;11.50;99.90
14771;DHT22;7477;45.222;5.688;2023-04-24T04:03:37;11.50;99.90
14771;DHT22;7477;45.222;5.688;2023-04-24T04:06:57;11.60;99.90
14771;DHT22;7477;45.222;5.688;2023-04-24T04:10:20;11.50;99.90
14771;DHT22;7477;45.222;5.688;2023-04-24T04:13:39;11.40;99.90
14771;DHT22;7477;45.222;5.688;2023-04-24T04:16:59;11.50;99.90
14771;DHT22;7477;45.222;5.688;2023-04-24T04:20:18;11.50;99.90
14771;DHT22;7477;45.222;5.688;2023-04-24T04:23:37;11.50;99.90
14771;DHT22;7477;45.222;5.688;2023-04-24T04:26:57;11.50;99.90
14771;DHT22;7477;45.222;5.688;2023-04-24T04:30:17;11.50;99.90
14771;DHT22;7477;45.222;5.688;2023-04-24T04:33:36;11.50;99.90
14771;DHT22;7477;45.222;5.688;2023-04-24T04:36:57;11.40;99.90
14771;DHT22;7477;45.222;5.688;2023-04-24T04:40:19;11.40;99.90
14771;DHT22;7477;45.222;5.688;2023-04-24T04:43:38;11.40;99.90
14771;DHT22;7477;45.222;5.688;2023-04-24T04:46:58;11.50;99.90
14771;DHT22;7477;45.222;5.688;2023-04-24T04:50:19;11.50;99.90
14771;DHT22;7477;45.222;5.688;2023-04-24T04:53:39;11.50;99.90
14771;DHT22;7477;45.222;5.688;2023-04-24T04:56:58;11.40;99.90
14771;DHT22;7477;45.222;5.688;2023-04-24T05:00:18;11.50;99.90
14771;DHT22;7477;45.222;5.688;2023-04-24T05:03:38;11.40;99.90
14771;DHT22;7477;45.222;5.688;2023-04-24T05:06:58;11.40;99.90
14771;DHT22;7477;45.222;5.688;2023-04-24T05:10:17;11.40;99.90
14771;DHT22;7477;45.222;5.688;2023-04-24T05:13:36;11.40;99.90
14771;DHT22;7477;45.222;5.688;2023-04-24T05:16:55;11.40;99.90
14771;DHT22;7477;45.222;5.688;2023-04-24T05:20:15;11.40;99.90
14771;DHT22;7477;45.222;5.688;2023-04-24T05:23:34;11.40;99.90
14771;DHT22;7477;45.222;5.688;2023-04-24T05:26:54;11.40;99.90
14771;DHT22;7477;45.222;5.688;2023-04-24T05:30:14;11.50;99.90
14771;DHT22;7477;45.222;5.688;2023-04-24T05:33:34;11.50;99.90
14771;DHT22;7477;45.222;5.688;2023-04-24T05:36:53;11.60;99.90
14771;DHT22;7477;45.222;5.688;2023-04-24T05:40:12;11.50;99.90
14771;DHT22;7477;45.222;5.688;2023-04-24T05:43:31;11.50;99.90
14771;DHT22;7477;45.222;5.688;2023-04-24T05:46:50;11.60;99.90
14771;DHT22;7477;45.222;5.688;2023-04-24T05:50:10;11.60;99.90
14771;DHT22;7477;45.222;5.688;2023-04-24T05:53:30;11.70;99.90
14771;DHT22;7477;45.222;5.688;2023-04-24T05:56:50;11.60;99.90
14771;DHT22;7477;45.222;5.688;2023-04-24T06:00:10;11.50;99.90
14771;DHT22;7477;45.222;5.688;2023-04-24T06:03:31;11.50;99.90
14771;DHT22;7477;45.222;5.688;2023-04-24T06:06:50;11.40;99.90
14771;DHT22;7477;45.222;5.688;2023-04-24T06:10:14;11.30;99.90
14771;DHT22;7477;45.222;5.688;2023-04-24T06:13:34;11.30;99.90
14771;DHT22;7477;45.222;5.688;2023-04-24T06:16:53;11.30;99.90
14771;DHT22;7477;45.222;5.688;2023-04-24T06:20:12;11.30;99.90
14771;DHT22;7477;45.222;5.688;2023-04-24T06:23:32;11.40;99.90
14771;DHT22;7477;45.222;5.688;2023-04-24T06:26:51;11.40;99.90
14771;DHT22;7477;45.222;5.688;2023-04-24T06:30:11;11.40;99.90
14771;DHT22;7477;45.222;5.688;2023-04-24T06:33:30;11.40;99.90
14771;DHT22;7477;45.222;5.688;2023-04-24T06:36:50;11.40;99.90
14771;DHT22;7477;45.222;5.688;2023-04-24T06:40:09;11.40;99.90
14771;DHT22;7477;45.222;5.688;2023-04-24T06:43:28;11.40;99.90
14771;DHT22;7477;45.222;5.688;2023-04-24T06:46:47;11.40;99.90
14771;DHT22;7477;45.222;5.688;2023-04-24T06:50:07;11.40;99.90
14771;DHT22;7477;45.222;5.688;2023-04-24T06:53:27;11.50;99.90
14771;DHT22;7477;45.222;5.688;2023-04-24T06:56:46;11.50;99.90
14771;DHT22;7477;45.222;5.688;2023-04-24T07:00:07;11.60;99.90
14771;DHT22;7477;45.222;5.688;2023-04-24T07:03:28;11.50;99.90
14771;DHT22;7477;45.222;5.688;2023-04-24T07:06:48;11.40;99.90
14771;DHT22;7477;45.222;5.688;2023-04-24T07:10:08;11.40;99.90
14771;DHT22;7477;45.222;5.688;2023-04-24T07:13:27;11.50;99.90
14771;DHT22;7477;45.222;5.688;2023-04-24T07:16:47;11.50;99.90
14771;DHT22;7477;45.222;5.688;2023-04-24T07:20:07;11.30;99.90
14771;DHT22;7477;45.222;5.688;2023-04-24T07:23:29;11.40;99.90
14771;DHT22;7477;45.222;5.688;2023-04-24T07:26:48;11.40;99.90
14771;DHT22;7477;45.222;5.688;2023-04-24T07:30:08;11.30;99.90
14771;DHT22;7477;45.222;5.688;2023-04-24T07:33:27;11.30;99.90
14771;DHT22;7477;45.222;5.688;2023-04-24T07:36:47;11.40;99.90
14771;DHT22;7477;45.222;5.688;2023-04-24T07:40:07;11.50;99.90
14771;DHT22;7477;45.222;5.688;2023-04-24T07:43:27;11.30;99.90
14771;DHT22;7477;45.222;5.688;2023-04-24T07:46:46;11.30;99.90
14771;DHT22;7477;45.222;5.688;2023-04-24T07:50:06;11.40;99.90
14771;DHT22;7477;45.222;5.688;2023-04-24T07:53:26;11.30;99.90
14771;DHT22;7477;45.222;5.688;2023-04-24T07:56:45;11.30;99.90
14771;DHT22;7477;45.222;5.688;2023-04-24T08:00:05;11.40;99.90
14771;DHT22;7477;45.222;5.688;2023-04-24T08:03:25;11.40;99.90
14771;DHT22;7477;45.222;5.688;2023-04-24T08:06:44;11.60;99.90
14771;DHT22;7477;45.222;5.688;2023-04-24T08:10:04;11.70;99.90
14771;DHT22;7477;45.222;5.688;2023-04-24T08:13:23;11.80;99.90
14771;DHT22;7477;45.222;5.688;2023-04-24T08:16:43;12.00;99.90
14771;DHT22;7477;45.222;5.688;2023-04-24T08:20:06;12.10;99.90
14771;DHT22;7477;45.222;5.688;2023-04-24T08:23:29;12.20;99.90
14771;DHT22;7477;45.222;5.688;2023-04-24T08:26:48;12.10;99.90
14771;DHT22;7477;45.222;5.688;2023-04-24T08:30:13;12.30;99.90
14771;DHT22;7477;45.222;5.688;2023-04-24T08:33:32;12.30;99.90
14771;DHT22;7477;45.222;5.688;2023-04-24T08:36:55;12.40;99.90
14771;DHT22;7477;45.222;5.688;2023-04-24T08:40:16;12.50;99.90
14771;DHT22;7477;45.222;5.688;2023-04-24T08:43:35;12.50;99.90
14771;DHT22;7477;45.222;5.688;2023-04-24T08:46:56;12.50;99.90
14771;DHT22;7477;45.222;5.688;2023-04-24T08:50:16;12.70;99.90
14771;DHT22;7477;45.222;5.688;2023-04-24T08:53:36;12.80;99.90
14771;DHT22;7477;45.222;5.688;2023-04-24T08:56:59;12.80;99.90
14771;DHT22;7477;45.222;5.688;2023-04-24T09:00:22;12.80;99.90
14771;DHT22;7477;45.222;5.688;2023-04-24T09:03:42;12.60;99.90
14771;DHT22;7477;45.222;5.688;2023-04-24T09:07:02;12.70;99.90
14771;DHT22;7477;45.222;5.688;2023-04-24T09:10:24;12.80;99.90
14771;DHT22;7477;45.222;5.688;2023-04-24T09:13:43;12.90;99.90
14771;DHT22;7477;45.222;5.688;2023-04-24T09:17:04;13.00;99.90
14771;DHT22;7477;45.222;5.688;2023-04-24T09:20:23;13.20;99.90
14771;DHT22;7477;45.222;5.688;2023-04-24T09:23:43;13.10;99.90
14771;DHT22;7477;45.222;5.688;2023-04-24T09:27:02;13.30;99.90
14771;DHT22;7477;45.222;5.688;2023-04-24T09:30:21;13.40;99.90
14771;DHT22;7477;45.222;5.688;2023-04-24T09:33:59;13.40;99.90
14771;DHT22;7477;45.222;5.688;2023-04-24T09:37:28;13.30;99.90
14771;DHT22;7477;45.222;5.688;2023-04-24T09:40:48;13.30;99.90
14771;DHT22;7477;45.222;5.688;2023-04-24T09:47:37;13.50;99.90
14771;DHT22;7477;45.222;5.688;2023-04-24T09:50:56;13.50;99.90
14771;DHT22;7477;45.222;5.688;2023-04-24T09:54:16;13.60;99.90
14771;DHT22;7477;45.222;5.688;2023-04-24T09:57:47;13.60;99.90
14771;DHT22;7477;45.222;5.688;2023-04-24T10:01:06;13.70;99.90
14771;DHT22;7477;45.222;5.688;2023-04-24T10:04:28;13.70;99.90
14771;DHT22;7477;45.222;5.688;2023-04-24T10:07:48;13.70;99.90
14771;DHT22;7477;45.222;5.688;2023-04-24T10:11:07;13.70;99.90
14771;DHT22;7477;45.222;5.688;2023-04-24T10:14:27;13.80;99.90
14771;DHT22;7477;45.222;5.688;2023-04-24T10:17:47;13.80;99.90
14771;DHT22;7477;45.222;5.688;2023-04-24T10:21:11;13.70;99.90
14771;DHT22;7477;45.222;5.688;2023-04-24T10:24:31;13.90;99.90
14771;DHT22;7477;45.222;5.688;2023-04-24T10:27:53;14.10;99.90
14771;DHT22;7477;45.222;5.688;2023-04-24T10:31:14;14.10;99.90
14771;DHT22;7477;45.222;5.688;2023-04-24T10:34:33;14.10;99.90
14771;DHT22;7477;45.222;5.688;2023-04-24T10:41:12;14.10;99.90
14771;DHT22;7477;45.222;5.688;2023-04-24T10:44:40;14.20;99.90
14771;DHT22;7477;45.222;5.688;2023-04-24T10:48:01;14.30;99.90
14771;DHT22;7477;45.222;5.688;2023-04-24T10:51:22;14.40;99.90
14771;DHT22;7477;45.222;5.688;2023-04-24T10:54:45;14.50;99.90
14771;DHT22;7477;45.222;5.688;2023-04-24T10:58:05;14.50;99.90
14771;DHT22;7477;45.222;5.688;2023-04-24T11:01:29;14.60;99.90
14771;DHT22;7477;45.222;5.688;2023-04-24T11:04:51;14.70;99.90
14771;DHT22;7477;45.222;5.688;2023-04-24T11:08:15;14.60;99.90
14771;DHT22;7477;45.222;5.688;2023-04-24T11:11:36;14.70;99.90
14771;DHT22;7477;45.222;5.688;2023-04-24T11:18:16;14.80;99.30
14771;DHT22;7477;45.222;5.688;2023-04-24T11:21:39;14.90;99.90
14771;DHT22;7477;45.222;5.688;2023-04-24T11:25:00;14.90;98.80
14771;DHT22;7477;45.222;5.688;2023-04-24T11:28:24;14.90;99.20
14771;DHT22;7477;45.222;5.688;2023-04-24T11:31:44;15.00;99.90
14771;DHT22;7477;45.222;5.688;2023-04-24T11:38:32;14.90;99.90
14771;DHT22;7477;45.222;5.688;2023-04-24T11:41:52;15.20;98.30
14771;DHT22;7477;45.222;5.688;2023-04-24T11:45:17;15.20;97.00
14771;DHT22;7477;45.222;5.688;2023-04-24T11:48:36;15.20;97.50
14771;DHT22;7477;45.222;5.688;2023-04-24T11:52:04;15.10;99.90
14771;DHT22;7477;45.222;5.688;2023-04-24T11:55:26;15.00;99.90
14771;DHT22;7477;45.222;5.688;2023-04-24T11:58:47;15.00;99.90
14771;DHT22;7477;45.222;5.688;2023-04-24T12:02:06;15.10;99.90
14771;DHT22;7477;45.222;5.688;2023-04-24T12:05:27;15.00;99.90
14771;DHT22;7477;45.222;5.688;2023-04-24T12:08:47;15.00;99.90
14771;DHT22;7477;45.222;5.688;2023-04-24T12:12:06;15.10;99.90
14771;DHT22;7477;45.222;5.688;2023-04-24T12:15:26;15.00;99.90
14771;DHT22;7477;45.222;5.688;2023-04-24T12:18:46;15.10;99.90
14771;DHT22;7477;45.222;5.688;2023-04-24T12:22:06;15.20;99.90
14771;DHT22;7477;45.222;5.688;2023-04-24T12:25:28;15.10;99.90
14771;DHT22;7477;45.222;5.688;2023-04-24T12:28:49;15.10;99.90
14771;DHT22;7477;45.222;5.688;2023-04-24T12:32:16;15.20;99.90
14771;DHT22;7477;45.222;5.688;2023-04-24T12:35:35;15.20;99.90
14771;DHT22;7477;45.222;5.688;2023-04-24T12:38:55;15.30;99.90
14771;DHT22;7477;45.222;5.688;2023-04-24T12:42:14;15.40;99.90
14771;DHT22;7477;45.222;5.688;2023-04-24T12:45:34;15.50;98.40
14771;DHT22;7477;45.222;5.688;2023-04-24T12:48:53;15.50;98.40
14771;DHT22;7477;45.222;5.688;2023-04-24T12:52:12;15.60;99.90
14771;DHT22;7477;45.222;5.688;2023-04-24T12:55:32;15.60;99.90
14771;DHT22;7477;45.222;5.688;2023-04-24T12:58:51;15.80;99.80
14771;DHT22;7477;45.222;5.688;2023-04-24T13:02:11;15.50;99.90
14771;DHT22;7477;45.222;5.688;2023-04-24T13:05:30;15.50;99.90
14771;DHT22;7477;45.222;5.688;2023-04-24T13:08:49;15.90;99.90
14771;DHT22;7477;45.222;5.688;2023-04-24T13:12:11;15.80;99.90
14771;DHT22;7477;45.222;5.688;2023-04-24T13:15:31;15.70;99.90
14771;DHT22;7477;45.222;5.688;2023-04-24T13:18:50;15.60;99.90
14771;DHT22;7477;45.222;5.688;2023-04-24T13:22:11;15.70;99.30
14771;DHT22;7477;45.222;5.688;2023-04-24T13:25:36;15.70;99.50
14771;DHT22;7477;45.222;5.688;2023-04-24T13:28:56;15.90;98.00
14771;DHT22;7477;45.222;5.688;2023-04-24T13:32:15;16.10;95.60
14771;DHT22;7477;45.222;5.688;2023-04-24T13:35:35;16.60;91.50
14771;DHT22;7477;45.222;5.688;2023-04-24T13:38:54;16.60;91.40
14771;DHT22;7477;45.222;5.688;2023-04-24T13:42:13;16.60;92.50
14771;DHT22;7477;45.222;5.688;2023-04-24T13:45:33;16.60;94.90
14771;DHT22;7477;45.222;5.688;2023-04-24T13:48:52;16.10;96.10
14771;DHT22;7477;45.222;5.688;2023-04-24T13:52:11;16.50;95.10
14771;DHT22;7477;45.222;5.688;2023-04-24T13:55:31;16.50;93.80
14771;DHT22;7477;45.222;5.688;2023-04-24T13:58:50;16.70;93.40
14771;DHT22;7477;45.222;5.688;2023-04-24T14:02:10;16.40;96.50
14771;DHT22;7477;45.222;5.688;2023-04-24T14:05:29;16.20;98.40
14771;DHT22;7477;45.222;5.688;2023-04-24T14:08:49;16.20;98.50
14771;DHT22;7477;45.222;5.688;2023-04-24T14:12:09;16.20;98.50
14771;DHT22;7477;45.222;5.688;2023-04-24T14:15:28;17.00;94.70
14771;DHT22;7477;45.222;5.688;2023-04-24T14:18:49;17.10;95.00
14771;DHT22;7477;45.222;5.688;2023-04-24T14:22:09;16.80;95.80
14771;DHT22;7477;45.222;5.688;2023-04-24T14:25:28;17.90;91.60
14771;DHT22;7477;45.222;5.688;2023-04-24T14:28:47;17.90;90.70
14771;DHT22;7477;45.222;5.688;2023-04-24T14:32:07;18.10;90.30
14771;DHT22;7477;45.222;5.688;2023-04-24T14:35:28;17.80;92.60
14771;DHT22;7477;45.222;5.688;2023-04-24T14:38:47;18.30;90.30
14771;DHT22;7477;45.222;5.688;2023-04-24T14:42:06;18.40;89.60
14771;DHT22;7477;45.222;5.688;2023-04-24T14:45:26;18.30;87.00
14771;DHT22;7477;45.222;5.688;2023-04-24T14:48:45;18.50;88.60
14771;DHT22;7477;45.222;5.688;2023-04-24T14:52:05;18.50;89.10
14771;DHT22;7477;45.222;5.688;2023-04-24T14:55:24;18.80;87.00
14771;DHT22;7477;45.222;5.688;2023-04-24T14:58:45;18.80;88.50
14771;DHT22;7477;45.222;5.688;2023-04-24T15:02:05;19.00;86.60
14771;DHT22;7477;45.222;5.688;2023-04-24T15:05:24;18.20;89.30
14771;DHT22;7477;45.222;5.688;2023-04-24T15:08:43;18.80;83.00
14771;DHT22;7477;45.222;5.688;2023-04-24T15:12:03;17.70;90.80
14771;DHT22;7477;45.222;5.688;2023-04-24T15:15:23;19.30;84.20
14771;DHT22;7477;45.222;5.688;2023-04-24T15:18:42;19.40;77.80
14771;DHT22;7477;45.222;5.688;2023-04-24T15:22:02;19.30;75.90
14771;DHT22;7477;45.222;5.688;2023-04-24T15:25:21;19.40;75.60
14771;DHT22;7477;45.222;5.688;2023-04-24T15:28:40;19.70;73.30
14771;DHT22;7477;45.222;5.688;2023-04-24T15:31:59;19.60;73.60
14771;DHT22;7477;45.222;5.688;2023-04-24T15:35:18;19.20;72.40
14771;DHT22;7477;45.222;5.688;2023-04-24T15:38:38;19.00;74.30
14771;DHT22;7477;45.222;5.688;2023-04-24T15:41:57;19.40;72.00
14771;DHT22;7477;45.222;5.688;2023-04-24T15:45:17;19.00;73.70
14771;DHT22;7477;45.222;5.688;2023-04-24T15:48:36;19.10;74.30
14771;DHT22;7477;45.222;5.688;2023-04-24T15:51:57;19.00;76.20
14771;DHT22;7477;45.222;5.688;2023-04-24T15:55:16;19.60;76.70
14771;DHT22;7477;45.222;5.688;2023-04-24T15:58:36;19.40;74.50
14771;DHT22;7477;45.222;5.688;2023-04-24T16:01:56;18.80;73.50
14771;DHT22;7477;45.222;5.688;2023-04-24T16:05:15;18.70;72.90
14771;DHT22;7477;45.222;5.688;2023-04-24T16:08:35;18.70;75.50
14771;DHT22;7477;45.222;5.688;2023-04-24T16:11:54;18.40;76.60
14771;DHT22;7477;45.222;5.688;2023-04-24T16:15:14;18.40;78.10
14771;DHT22;7477;45.222;5.688;2023-04-24T16:18:33;18.70;79.60
14771;DHT22;7477;45.222;5.688;2023-04-24T16:21:52;18.80;80.20
14771;DHT22;7477;45.222;5.688;2023-04-24T16:25:14;19.00;78.90
14771;DHT22;7477;45.222;5.688;2023-04-24T16:28:33;18.30;81.20
14771;DHT22;7477;45.222;5.688;2023-04-24T16:31:54;18.10;82.50
14771;DHT22;7477;45.222;5.688;2023-04-24T16:35:13;18.10;82.20
14771;DHT22;7477;45.222;5.688;2023-04-24T16:38:32;18.40;79.10
14771;DHT22;7477;45.222;5.688;2023-04-24T16:41:51;18.10;79.60
14771;DHT22;7477;45.222;5.688;2023-04-24T16:45:12;18.10;79.00
14771;DHT22;7477;45.222;5.688;2023-04-24T16:48:32;18.00;77.00
14771;DHT22;7477;45.222;5.688;2023-04-24T16:51:51;18.10;76.60
14771;DHT22;7477;45.222;5.688;2023-04-24T16:55:10;18.00;76.50
14771;DHT22;7477;45.222;5.688;2023-04-24T16:58:30;18.00;79.80
14771;DHT22;7477;45.222;5.688;2023-04-24T17:01:50;18.10;77.00
14771;DHT22;7477;45.222;5.688;2023-04-24T17:05:09;18.00;78.40
14771;DHT22;7477;45.222;5.688;2023-04-24T17:08:28;17.90;80.90
14771;DHT22;7477;45.222;5.688;2023-04-24T17:11:50;18.00;79.10
14771;DHT22;7477;45.222;5.688;2023-04-24T17:15:10;17.90;81.80
14771;DHT22;7477;45.222;5.688;2023-04-24T17:18:30;17.70;83.30
14771;DHT22;7477;45.222;5.688;2023-04-24T17:21:49;17.60;85.40
14771;DHT22;7477;45.222;5.688;2023-04-24T17:25:08;17.60;84.00
14771;DHT22;7477;45.222;5.688;2023-04-24T17:28:29;17.60;88.80
14771;DHT22;7477;45.222;5.688;2023-04-24T17:31:49;17.60;86.20
14771;DHT22;7477;45.222;5.688;2023-04-24T17:35:10;17.50;84.00
14771;DHT22;7477;45.222;5.688;2023-04-24T17:38:30;17.50;80.10
14771;DHT22;7477;45.222;5.688;2023-04-24T17:41:49;17.50;80.20
14771;DHT22;7477;45.222;5.688;2023-04-24T17:45:09;17.40;81.10
14771;DHT22;7477;45.222;5.688;2023-04-24T17:48:30;17.30;81.50
14771;DHT22;7477;45.222;5.688;2023-04-24T17:51:49;17.20;82.20
14771;DHT22;7477;45.222;5.688;2023-04-24T17:55:08;17.10;82.00
14771;DHT22;7477;45.222;5.688;2023-04-24T17:58:28;17.10;82.60
14771;DHT22;7477;45.222;5.688;2023-04-24T18:01:49;17.00;83.00
14771;DHT22;7477;45.222;5.688;2023-04-24T18:05:08;16.90;83.50
14771;DHT22;7477;45.222;5.688;2023-04-24T18:08:28;16.80;83.50
14771;DHT22;7477;45.222;5.688;2023-04-24T18:11:47;16.80;84.20
14771;DHT22;7477;45.222;5.688;2023-04-24T18:15:08;16.60;84.50
14771;DHT22;7477;45.222;5.688;2023-04-24T18:18:28;16.70;85.30
14771;DHT22;7477;45.222;5.688;2023-04-24T18:21:47;16.50;85.60
14771;DHT22;7477;45.222;5.688;2023-04-24T18:25:07;16.50;86.30
14771;DHT22;7477;45.222;5.688;2023-04-24T18:28:27;16.50;87.30
14771;DHT22;7477;45.222;5.688;2023-04-24T18:31:49;16.40;88.10
14771;DHT22;7477;45.222;5.688;2023-04-24T18:35:08;16.30;88.40
14771;DHT22;7477;45.222;5.688;2023-04-24T18:38:28;16.20;88.90
14771;DHT22;7477;45.222;5.688;2023-04-24T18:41:48;16.30;89.40
14771;DHT22;7477;45.222;5.688;2023-04-24T18:45:07;16.10;89.70
14771;DHT22;7477;45.222;5.688;2023-04-24T18:48:27;16.10;89.90
14771;DHT22;7477;45.222;5.688;2023-04-24T18:51:48;16.20;90.00
14771;DHT22;7477;45.222;5.688;2023-04-24T18:55:08;16.10;90.30
14771;DHT22;7477;45.222;5.688;2023-04-24T18:58:28;16.00;90.20
14771;DHT22;7477;45.222;5.688;2023-04-24T19:01:47;16.00;90.30
14771;DHT22;7477;45.222;5.688;2023-04-24T19:05:07;16.00;90.40
14771;DHT22;7477;45.222;5.688;2023-04-24T19:08:28;15.90;90.50
14771;DHT22;7477;45.222;5.688;2023-04-24T19:11:48;15.90;90.70
14771;DHT22;7477;45.222;5.688;2023-04-24T19:15:07;15.90;90.80
14771;DHT22;7477;45.222;5.688;2023-04-24T19:18:30;15.90;90.80
14771;DHT22;7477;45.222;5.688;2023-04-24T19:21:49;15.90;91.10
14771;DHT22;7477;45.222;5.688;2023-04-24T19:25:08;15.90;90.70
14771;DHT22;7477;45.222;5.688;2023-04-24T19:28:27;15.80;91.30
14771;DHT22;7477;45.222;5.688;2023-04-24T19:31:47;15.90;91.10
14771;DHT22;7477;45.222;5.688;2023-04-24T19:35:06;15.70;90.60
14771;DHT22;7477;45.222;5.688;2023-04-24T19:38:26;15.70;90.60
14771;DHT22;7477;45.222;5.688;2023-04-24T19:41:46;15.70;90.50
14771;DHT22;7477;45.222;5.688;2023-04-24T19:45:05;15.70;90.60
14771;DHT22;7477;45.222;5.688;2023-04-24T19:48:25;15.70;90.60
14771;DHT22;7477;45.222;5.688;2023-04-24T19:51:48;15.50;90.50
14771;DHT22;7477;45.222;5.688;2023-04-24T19:55:08;15.60;91.10
14771;DHT22;7477;45.222;5.688;2023-04-24T19:58:28;15.50;91.40
14771;DHT22;7477;45.222;5.688;2023-04-24T20:01:49;15.50;91.30
14771;DHT22;7477;45.222;5.688;2023-04-24T20:05:09;15.50;92.00
14771;DHT22;7477;45.222;5.688;2023-04-24T20:08:29;15.50;92.60
14771;DHT22;7477;45.222;5.688;2023-04-24T20:11:48;15.50;92.70
14771;DHT22;7477;45.222;5.688;2023-04-24T20:15:09;15.30;93.20
14771;DHT22;7477;45.222;5.688;2023-04-24T20:18:29;15.40;93.30
14771;DHT22;7477;45.222;5.688;2023-04-24T20:21:48;15.30;93.40
14771;DHT22;7477;45.222;5.688;2023-04-24T20:25:08;15.40;93.00
14771;DHT22;7477;45.222;5.688;2023-04-24T20:28:28;15.30;92.70
14771;DHT22;7477;45.222;5.688;2023-04-24T20:31:48;15.20;93.00
14771;DHT22;7477;45.222;5.688;2023-04-24T20:35:08;15.10;92.60
14771;DHT22;7477;45.222;5.688;2023-04-24T20:38:28;15.10;93.40
14771;DHT22;7477;45.222;5.688;2023-04-24T20:41:47;15.10;93.70
14771;DHT22;7477;45.222;5.688;2023-04-24T20:45:07;15.00;93.60
14771;DHT22;7477;45.222;5.688;2023-04-24T20:48:26;15.00;93.50
14771;DHT22;7477;45.222;5.688;2023-04-24T20:51:45;15.00;93.50
14771;DHT22;7477;45.222;5.688;2023-04-24T20:55:05;15.10;93.70
14771;DHT22;7477;45.222;5.688;2023-04-24T20:58:25;14.90;93.30
14771;DHT22;7477;45.222;5.688;2023-04-24T21:01:44;14.90;93.70
14771;DHT22;7477;45.222;5.688;2023-04-24T21:05:05;14.80;93.70
14771;DHT22;7477;45.222;5.688;2023-04-24T21:08:25;14.80;94.70
14771;DHT22;7477;45.222;5.688;2023-04-24T21:11:44;14.80;95.20
14771;DHT22;7477;45.222;5.688;2023-04-24T21:15:03;14.70;95.10
14771;DHT22;7477;45.222;5.688;2023-04-24T21:18:24;14.80;95.10
14771;DHT22;7477;45.222;5.688;2023-04-24T21:21:44;14.80;94.70
14771;DHT22;7477;45.222;5.688;2023-04-24T21:25:04;14.70;94.80
14771;DHT22;7477;45.222;5.688;2023-04-24T21:28:24;14.60;95.00
14771;DHT22;7477;45.222;5.688;2023-04-24T21:31:44;14.60;95.30
14771;DHT22;7477;45.222;5.688;2023-04-24T21:35:04;14.50;95.50